Portada
METAR-TAF:

METAR-TAF

Aeroports :

Sint Maarten, Antilles Neerlandeses

latitud: 18-03N, longitud: 063-07W, altitud: 4 m

Observació

L'informe es va fer fa 1 hora i 9 minuts, a les 23:00 UTC
Vent 1 kt amb direcció variable
Temperatura 29°C
Humitat 74%
Pressió 1014 hPa
Visibilitat 10 km o més
Núvols disperses a una alçada de 1600 ft

METAR: TNCM 212300Z VRB01KT 9999 SCT016 29/24 Q1014 NOSIG

Hora: 20:09 (00:09 UTC)

Pronòstic

L'informe es va fer fa 37 minuts, a les 23:32 UTC
Pronòstic vàlid del 22 a les 00 UTC al 22 a les 24 UTC
Vent 5 kt amb direcció variable
Visibilitat: 10 km
Núvols disperses a una alçada de 1800 ft
A partir de les 22 a les 1400 UTC
Vent 10 kt del Est/Sud-Est
Visibilitat: 10 km
Núvols disperses a una alçada de 1800 ft

TAF: TNCM 212332Z 2200/2224 VRB05KT P6SM SCT018 FM221400 12010KT P6SM SCT018

Observacions i pronòstics meteorològics de més de 4000 aeroports (METAR i TAF).

Les estacions disponibles són els punts grocs i vermells al mapa.

Posi el ratolí al punt desitjat per veure el nom de l'estació.

Feu clic per veure les observacions i els pronòstics meteorològics.

Per canviar el mapa: feu clic els botons verds amb una creu de color negre per apropar; al botó verd amb un guió per allunyar la imatge; o en les fletxes verdes per a mapes adjacents.


METAR-TAF: